Time;durP1;ratioP1;P1;durP2;ratioP2;P2;SDS_P1;SDS_P2;PMS_P1;PMS_P2;Temp;Humidity;BMP_temperature;BMP_pressure;BME280_temperature;BME280_humidity;BME280_pressure;Samples;Min_cycle;Max_cycle;Signal;HPM_P1;HPM_P2
2023/11/22 00:01:07;;;;;;;1.95;1.30;;;20.80;41.20;;;;;;5026605;28;20030;-60
2023/11/22 00:03:32;;;;;;;1.50;1.02;;;20.80;41.20;;;;;;5024806;28;20026;-60
2023/11/22 00:05:58;;;;;;;1.23;1.00;;;20.80;41.20;;;;;;5026400;28;20040;-60
2023/11/22 00:08:24;;;;;;;1.85;1.17;;;20.80;41.20;;;;;;5027880;28;20028;-60
2023/11/22 00:10:50;;;;;;;2.30;1.25;;;20.70;41.10;;;;;;5025809;28;20341;-60
2023/11/22 00:13:16;;;;;;;1.75;1.05;;;20.70;41.10;;;;;;5030433;28;20032;-60
2023/11/22 00:15:42;;;;;;;1.73;1.33;;;20.70;41.10;;;;;;5031493;28;20400;-60
2023/11/22 00:18:08;;;;;;;1.33;1.20;;;20.70;41.10;;;;;;5025673;28;20122;-62
2023/11/22 00:20:34;;;;;;;2.35;1.30;;;20.70;41.10;;;;;;5011849;28;20033;-59
2023/11/22 00:22:59;;;;;;;1.75;1.10;;;20.70;41.10;;;;;;5031394;28;20017;-59
2023/11/22 00:25:26;;;;;;;1.20;1.00;;;20.70;41.10;;;;;;5029445;28;20037;-60
2023/11/22 00:27:51;;;;;;;1.60;1.20;;;20.70;41.10;;;;;;5014725;28;20025;-60
2023/11/22 00:30:17;;;;;;;1.42;1.25;;;20.70;41.10;;;;;;5027663;28;20483;-60
2023/11/22 00:32:44;;;;;;;1.40;0.90;;;20.70;41.10;;;;;;5035947;28;20041;-60
2023/11/22 00:35:10;;;;;;;1.40;1.10;;;20.70;41.10;;;;;;5018666;28;20464;-60
2023/11/22 00:37:36;;;;;;;1.33;1.05;;;20.70;41.00;;;;;;5051138;28;20032;-60
2023/11/22 00:40:10;;;;;;;2.00;1.20;;;20.60;41.00;;;;;;5049795;28;20021;-59
2023/11/22 00:42:39;;;;;;;2.28;1.10;;;20.60;40.90;;;;;;5045701;28;20526;-58
2023/11/22 00:45:06;;;;;;;1.50;1.35;;;20.60;41.00;;;;;;5045773;28;20024;-58
2023/11/22 00:47:33;;;;;;;2.28;1.23;;;20.60;40.90;;;;;;5047446;28;20051;-58
2023/11/22 00:49:59;;;;;;;1.25;1.10;;;20.60;40.90;;;;;;5049499;28;20090;-59
2023/11/22 00:52:25;;;;;;;1.27;1.02;;;20.60;41.00;;;;;;5032058;28;20444;-59
2023/11/22 00:54:51;;;;;;;1.70;1.10;;;20.60;40.90;;;;;;5031768;28;20043;-60
2023/11/22 00:57:17;;;;;;;2.30;1.20;;;20.60;40.90;;;;;;5052979;28;20454;-60
2023/11/22 00:59:43;;;;;;;1.88;1.30;;;20.60;40.90;;;;;;5053449;28;20444;-60
2023/11/22 01:02:09;;;;;;;1.60;1.00;;;20.60;40.80;;;;;;5052119;28;20085;-61
2023/11/22 01:04:36;;;;;;;1.08;0.90;;;20.60;40.80;;;;;;5028830;28;20128;-61
2023/11/22 01:07:06;;;;;;;1.55;1.30;;;20.60;40.80;;;;;;5047287;28;20021;-61
2023/11/22 01:09:33;;;;;;;1.77;1.10;;;20.60;40.90;;;;;;5050836;28;20074;-59
2023/11/22 01:11:59;;;;;;;1.55;1.30;;;20.60;40.80;;;;;;5036075;28;20048;-61
2023/11/22 01:14:26;;;;;;;2.72;1.58;;;20.60;40.80;;;;;;5050570;28;20488;-60
2023/11/22 01:16:52;;;;;;;1.70;1.27;;;20.60;40.80;;;;;;5046991;28;20349;-59
2023/11/22 01:19:18;;;;;;;1.38;0.82;;;20.60;40.80;;;;;;5049715;28;20443;-60
2023/11/22 01:21:44;;;;;;;1.40;1.23;;;20.60;40.80;;;;;;5047060;28;20095;-60
2023/11/22 01:24:11;;;;;;;2.08;1.23;;;20.50;40.70;;;;;;5048365;28;20432;-60
2023/11/22 01:26:38;;;;;;;1.38;0.98;;;20.60;40.70;;;;;;5051603;28;20025;-60
2023/11/22 01:29:04;;;;;;;1.40;1.30;;;20.50;40.70;;;;;;5032510;28;20067;-59
2023/11/22 01:31:30;;;;;;;1.20;1.10;;;20.50;40.60;;;;;;5031881;28;20025;-60
2023/11/22 01:33:56;;;;;;;1.20;1.00;;;20.50;40.60;;;;;;5049039;28;20033;-60
2023/11/22 01:36:22;;;;;;;1.10;1.00;;;20.50;40.60;;;;;;5029570;28;20037;-59
2023/11/22 01:38:47;;;;;;;1.38;1.05;;;20.50;40.60;;;;;;5038669;28;20018;-60
2023/11/22 01:41:13;;;;;;;1.10;1.00;;;20.50;40.60;;;;;;5048569;28;20039;-60
2023/11/22 01:43:41;;;;;;;1.60;1.00;;;20.50;40.50;;;;;;5032666;28;20036;-63
2023/11/22 01:46:22;;;;;;;1.70;1.02;;;20.50;40.50;;;;;;5021522;28;20029;-60
2023/11/22 01:48:52;;;;;;;1.33;1.10;;;20.50;40.50;;;;;;5049724;28;20024;-60
2023/11/22 01:51:24;;;;;;;1.30;1.00;;;20.50;40.50;;;;;;5044335;28;20057;-59
2023/11/22 01:53:55;;;;;;;1.02;0.88;;;20.50;40.50;;;;;;5049702;28;20467;-60
2023/11/22 01:56:23;;;;;;;1.20;1.10;;;20.40;40.40;;;;;;5047749;28;20040;-59
2023/11/22 01:58:56;;;;;;;1.30;1.00;;;20.50;40.50;;;;;;5032289;28;20017;-60
2023/11/22 02:01:22;;;;;;;1.45;1.25;;;20.50;40.50;;;;;;5033815;28;20025;-61
2023/11/22 02:03:48;;;;;;;1.50;1.20;;;20.50;40.40;;;;;;5053149;28;20021;-60
2023/11/22 02:06:18;;;;;;;1.63;1.13;;;20.50;40.40;;;;;;5027313;28;20037;-60
2023/11/22 02:08:44;;;;;;;1.83;1.00;;;20.50;40.40;;;;;;5022825;28;20029;-60
2023/11/22 02:11:11;;;;;;;2.00;1.10;;;20.40;40.30;;;;;;5027016;28;20360;-61
2023/11/22 02:13:40;;;;;;;1.45;1.10;;;20.40;40.30;;;;;;5029530;28;20065;-60
2023/11/22 02:16:05;;;;;;;1.27;1.10;;;20.40;40.30;;;;;;5049634;28;20040;-61
2023/11/22 02:18:31;;;;;;;1.38;1.10;;;20.50;40.30;;;;;;5033781;28;20025;-60
2023/11/22 02:20:57;;;;;;;1.23;1.00;;;20.40;40.20;;;;;;5035163;28;20045;-60
2023/11/22 02:23:23;;;;;;;1.23;1.10;;;20.40;40.30;;;;;;5047602;28;20497;-60
2023/11/22 02:25:49;;;;;;;1.30;1.10;;;20.40;40.20;;;;;;5032123;28;20046;-60
2023/11/22 02:28:16;;;;;;;1.40;1.00;;;20.40;40.20;;;;;;5044120;28;20030;-61
2023/11/22 02:30:42;;;;;;;1.38;1.08;;;20.40;40.20;;;;;;5030091;28;20036;-61
2023/11/22 02:33:08;;;;;;;1.50;1.10;;;20.40;40.20;;;;;;5010386;28;21873;-61
2023/11/22 02:35:34;;;;;;;1.63;1.27;;;20.40;40.20;;;;;;5027575;28;20053;-59
2023/11/22 02:38:00;;;;;;;1.58;1.13;;;20.40;40.20;;;;;;5031220;28;20033;-61
2023/11/22 02:40:28;;;;;;;1.92;1.20;;;20.40;40.20;;;;;;5046502;28;20065;-60
2023/11/22 02:42:56;;;;;;;1.40;1.08;;;20.40;40.20;;;;;;5033146;28;20451;-61
2023/11/22 02:45:28;;;;;;;1.25;0.95;;;20.40;40.20;;;;;;5024558;28;20084;-60
2023/11/22 02:47:54;;;;;;;1.25;0.98;;;20.40;40.20;;;;;;5041118;28;20025;-59
2023/11/22 02:50:20;;;;;;;1.40;1.00;;;20.30;40.10;;;;;;5048794;28;20028;-61
2023/11/22 02:52:47;;;;;;;1.75;1.20;;;20.40;40.10;;;;;;5047406;28;20025;-60
2023/11/22 02:55:12;;;;;;;1.27;1.17;;;20.30;40.10;;;;;;5037839;28;20047;-59
2023/11/22 02:57:42;;;;;;;1.25;0.85;;;20.30;40.00;;;;;;5030061;28;20422;-60
2023/11/22 03:00:13;;;;;;;1.92;1.10;;;20.30;40.00;;;;;;5028520;28;20083;-60
2023/11/22 03:02:41;;;;;;;1.60;1.00;;;20.30;40.00;;;;;;5031086;28;20044;-61
2023/11/22 03:05:09;;;;;;;1.10;1.00;;;20.30;40.00;;;;;;5053535;28;20704;-58
2023/11/22 03:07:35;;;;;;;1.27;1.17;;;20.30;40.00;;;;;;5031135;28;20051;-63
2023/11/22 03:10:03;;;;;;;1.38;1.20;;;20.30;40.00;;;;;;5043827;28;20021;-60
2023/11/22 03:12:28;;;;;;;1.75;1.00;;;20.30;39.90;;;;;;5046311;28;20116;-61
2023/11/22 03:15:00;;;;;;;1.30;1.00;;;20.30;39.90;;;;;;5046441;28;20108;-60
2023/11/22 03:17:29;;;;;;;1.55;1.30;;;20.30;39.90;;;;;;5030167;28;20036;-59
2023/11/22 03:19:56;;;;;;;1.25;1.15;;;20.30;39.90;;;;;;5045367;28;21518;-61
2023/11/22 03:22:23;;;;;;;1.75;1.30;;;20.30;39.90;;;;;;5048331;28;20025;-62
2023/11/22 03:24:50;;;;;;;1.25;1.00;;;20.30;39.80;;;;;;5047831;28;20083;-59
2023/11/22 03:27:16;;;;;;;1.70;0.90;;;20.30;39.80;;;;;;5049060;28;20041;-59
2023/11/22 03:29:42;;;;;;;1.65;1.25;;;20.30;39.80;;;;;;5043230;28;20028;-61
2023/11/22 03:32:08;;;;;;;1.10;1.00;;;20.30;39.80;;;;;;5050226;28;20029;-60
2023/11/22 03:34:34;;;;;;;1.30;1.10;;;20.20;39.70;;;;;;5025817;28;20040;-61
2023/11/22 03:36:59;;;;;;;1.45;1.10;;;20.30;39.80;;;;;;5000947;28;20068;-62
2023/11/22 03:39:26;;;;;;;1.10;0.90;;;20.20;39.70;;;;;;5032046;28;20040;-61
2023/11/22 03:41:52;;;;;;;1.45;1.13;;;20.20;39.70;;;;;;5025338;28;20040;-61
2023/11/22 03:44:18;;;;;;;1.52;1.30;;;20.20;39.70;;;;;;5028231;28;20021;-60
2023/11/22 03:46:44;;;;;;;1.85;1.15;;;20.20;39.70;;;;;;5028593;28;20033;-60
2023/11/22 03:49:10;;;;;;;1.58;1.20;;;20.20;39.70;;;;;;5009439;28;20029;-59
2023/11/22 03:51:39;;;;;;;1.88;1.33;;;20.20;39.60;;;;;;5027749;28;20044;-60
2023/11/22 03:54:05;;;;;;;1.10;1.00;;;20.20;39.60;;;;;;5005094;28;20029;-60
2023/11/22 03:56:31;;;;;;;1.17;1.08;;;20.20;39.60;;;;;;5025891;28;20467;-62
2023/11/22 03:58:57;;;;;;;1.10;0.85;;;20.20;39.60;;;;;;5028800;28;20488;-61
2023/11/22 04:01:23;;;;;;;1.42;1.05;;;20.20;39.50;;;;;;5027086;28;20152;-60
2023/11/22 04:03:49;;;;;;;1.38;1.13;;;20.20;39.50;;;;;;5028816;28;20025;-59
2023/11/22 04:06:16;;;;;;;1.45;1.25;;;20.20;39.50;;;;;;5022639;28;20029;-60
2023/11/22 04:08:46;;;;;;;1.27;1.10;;;20.20;39.50;;;;;;5010134;28;20325;-59
2023/11/22 04:11:13;;;;;;;1.00;0.90;;;20.20;39.50;;;;;;5028838;28;20064;-61
2023/11/22 04:13:39;;;;;;;1.30;1.00;;;20.20;39.50;;;;;;5029402;28;20462;-59
2023/11/22 04:16:08;;;;;;;1.50;1.15;;;20.20;39.50;;;;;;5013737;28;20511;-61
2023/11/22 04:18:41;;;;;;;1.67;0.90;;;20.10;39.40;;;;;;5011881;28;20085;-61
2023/11/22 04:21:07;;;;;;;1.48;1.20;;;20.10;39.40;;;;;;5027657;28;20040;-60
2023/11/22 04:23:34;;;;;;;1.40;1.15;;;20.20;39.50;;;;;;4996098;28;20075;-59
2023/11/22 04:26:00;;;;;;;1.23;1.10;;;20.10;39.40;;;;;;5024970;28;20464;-59
2023/11/22 04:28:29;;;;;;;1.17;1.08;;;20.10;39.40;;;;;;5031044;28;20101;-60
2023/11/22 04:30:55;;;;;;;1.58;1.00;;;20.10;39.40;;;;;;5031303;28;20029;-61
2023/11/22 04:33:21;;;;;;;2.08;1.30;;;20.10;39.30;;;;;;5030942;28;20476;-61
2023/11/22 04:35:48;;;;;;;1.42;1.20;;;20.10;39.30;;;;;;5016994;28;20057;-59
2023/11/22 04:38:14;;;;;;;2.00;1.20;;;20.10;39.30;;;;;;5023660;28;20112;-60
2023/11/22 04:40:42;;;;;;;1.23;1.13;;;20.10;39.30;;;;;;5043283;28;20113;-60
2023/11/22 04:43:08;;;;;;;1.30;1.10;;;20.10;39.30;;;;;;5046842;28;20074;-60
2023/11/22 04:45:34;;;;;;;1.30;1.08;;;20.10;39.30;;;;;;5045438;28;20104;-60
2023/11/22 04:48:01;;;;;;;1.30;1.20;;;20.10;39.30;;;;;;5047298;28;20104;-60
2023/11/22 04:50:26;;;;;;;1.30;1.02;;;20.10;39.20;;;;;;5044911;28;20021;-62
2023/11/22 04:52:52;;;;;;;1.60;1.05;;;20.10;39.20;;;;;;5049791;28;20036;-61
2023/11/22 04:55:19;;;;;;;1.60;1.05;;;20.10;39.20;;;;;;5043841;28;20100;-60
2023/11/22 04:57:48;;;;;;;1.30;1.02;;;20.10;39.20;;;;;;5029698;28;20501;-60
2023/11/22 05:00:14;;;;;;;1.90;1.00;;;20.10;39.10;;;;;;5044807;28;20100;-60
2023/11/22 05:02:42;;;;;;;1.40;1.20;;;20.10;39.10;;;;;;5040808;28;20086;-61
2023/11/22 05:05:10;;;;;;;1.35;1.10;;;20.10;39.10;;;;;;5047877;28;20021;-60
2023/11/22 05:07:36;;;;;;;1.40;1.10;;;20.10;39.00;;;;;;5030924;28;20116;-61
2023/11/22 05:10:03;;;;;;;1.75;1.17;;;20.10;39.00;;;;;;5040702;28;20119;-61
2023/11/22 05:12:29;;;;;;;1.33;1.20;;;20.00;39.00;;;;;;5045072;28;20041;-57
2023/11/22 05:14:55;;;;;;;3.40;0.93;;;20.00;39.00;;;;;;5052443;28;20025;-60
2023/11/22 05:17:20;;;;;;;1.20;0.93;;;20.00;38.90;;;;;;5029409;28;20025;-58
2023/11/22 05:19:47;;;;;;;1.55;1.08;;;20.10;39.00;;;;;;5054624;28;20029;-61
2023/11/22 05:22:15;;;;;;;1.48;1.10;;;20.00;38.90;;;;;;5051153;28;20021;-61
2023/11/22 05:24:41;;;;;;;1.38;1.25;;;20.00;38.90;;;;;;5049270;28;20021;-61
2023/11/22 05:27:08;;;;;;;1.20;1.10;;;20.00;38.90;;;;;;5048405;28;20030;-57
2023/11/22 05:29:34;;;;;;;1.45;1.20;;;20.00;38.80;;;;;;5056822;28;20040;-59
2023/11/22 05:32:03;;;;;;;1.35;0.90;;;20.00;38.90;;;;;;5059214;28;20031;-60
2023/11/22 05:34:30;;;;;;;1.20;1.10;;;20.00;39.00;;;;;;5065792;28;20078;-60
2023/11/22 05:36:56;;;;;;;2.17;1.27;;;20.00;39.00;;;;;;5038008;28;20037;-63
2023/11/22 05:39:22;;;;;;;1.20;1.02;;;20.00;39.00;;;;;;5036469;28;20415;-60
2023/11/22 05:41:49;;;;;;;2.00;1.30;;;20.00;39.00;;;;;;5015338;28;20028;-60
2023/11/22 05:44:15;;;;;;;1.70;1.30;;;20.00;39.00;;;;;;5036583;28;20060;-60
2023/11/22 05:46:41;;;;;;;1.90;1.30;;;20.00;38.90;;;;;;5039087;28;20463;-61
2023/11/22 05:49:10;;;;;;;1.40;1.10;;;20.00;38.90;;;;;;5012756;28;20024;-60
2023/11/22 05:51:37;;;;;;;1.30;0.98;;;20.00;38.90;;;;;;5033499;28;20341;-61
2023/11/22 05:54:04;;;;;;;1.15;0.88;;;20.00;38.90;;;;;;5026573;28;20061;-61
2023/11/22 05:56:30;;;;;;;1.20;1.05;;;20.00;38.80;;;;;;5033710;28;20054;-60
2023/11/22 05:58:59;;;;;;;1.42;1.02;;;20.00;38.80;;;;;;5015546;28;20030;-62
2023/11/22 06:01:30;;;;;;;1.33;1.10;;;20.00;38.80;;;;;;5033658;28;20043;-61
2023/11/22 06:03:56;;;;;;;1.60;1.10;;;20.00;38.80;;;;;;5036747;28;20024;-61
2023/11/22 06:06:23;;;;;;;1.35;1.20;;;20.00;38.70;;;;;;5015559;28;20036;-60
2023/11/22 06:08:49;;;;;;;1.50;1.00;;;20.00;38.80;;;;;;5031604;28;20064;-61
2023/11/22 06:11:15;;;;;;;1.50;1.27;;;19.90;38.70;;;;;;5025817;28;20393;-60
2023/11/22 06:13:42;;;;;;;1.38;1.20;;;19.90;38.70;;;;;;5011380;28;20022;-59
2023/11/22 06:16:09;;;;;;;3.08;1.10;;;20.00;38.80;;;;;;5013329;28;20034;-59
2023/11/22 06:18:40;;;;;;;2.13;1.33;;;19.90;38.70;;;;;;5027912;28;20338;-61
2023/11/22 06:21:08;;;;;;;1.23;1.10;;;19.90;38.70;;;;;;5026524;28;20094;-60
2023/11/22 06:23:34;;;;;;;1.85;1.40;;;19.90;38.70;;;;;;5032137;28;20460;-60
2023/11/22 06:26:00;;;;;;;1.33;1.05;;;19.90;38.70;;;;;;5014948;28;20029;-61
2023/11/22 06:28:26;;;;;;;1.45;1.27;;;19.90;38.60;;;;;;5043975;28;20032;-60
2023/11/22 06:30:52;;;;;;;1.38;1.27;;;19.90;38.60;;;;;;5030541;28;20036;-58
2023/11/22 06:33:19;;;;;;;1.70;1.15;;;19.90;38.60;;;;;;5038335;28;20082;-61
2023/11/22 06:35:45;;;;;;;1.25;1.15;;;19.90;38.60;;;;;;5031607;28;20032;-59
2023/11/22 06:38:11;;;;;;;2.25;1.35;;;19.90;38.60;;;;;;5059294;28;20029;-61
2023/11/22 06:40:40;;;;;;;1.98;1.35;;;19.90;38.60;;;;;;5057496;28;20028;-62
2023/11/22 06:43:06;;;;;;;1.45;1.20;;;19.90;38.60;;;;;;5041232;28;20025;-61
2023/11/22 06:45:32;;;;;;;1.17;1.00;;;19.90;38.60;;;;;;5058550;28;20013;-61
2023/11/22 06:47:58;;;;;;;1.45;1.33;;;19.90;38.60;;;;;;5057296;28;20025;-61
2023/11/22 06:50:25;;;;;;;1.80;1.20;;;19.90;38.60;;;;;;5055200;28;20104;-61
2023/11/22 06:52:52;;;;;;;1.75;1.17;;;19.90;38.60;;;;;;5037704;28;20063;-58
2023/11/22 06:55:18;;;;;;;1.70;1.33;;;19.90;38.60;;;;;;5040338;28;20440;-59
2023/11/22 06:57:45;;;;;;;2.08;1.50;;;19.90;38.60;;;;;;5058941;28;20463;-60
2023/11/22 07:00:12;;;;;;;1.65;1.20;;;19.80;38.70;;;;;;5053516;28;20100;-59
2023/11/22 07:02:38;;;;;;;1.58;1.20;;;19.80;38.70;;;;;;5059879;28;20108;-59
2023/11/22 07:05:08;;;;;;;2.08;1.40;;;19.80;38.60;;;;;;5061549;28;20599;-59
2023/11/22 07:07:38;;;;;;;2.03;1.60;;;19.80;38.70;;;;;;5051607;28;20056;-60
2023/11/22 07:10:05;;;;;;;1.52;1.20;;;19.80;38.60;;;;;;5062286;28;20102;-59
2023/11/22 07:12:35;;;;;;;1.38;1.23;;;19.80;38.60;;;;;;5052945;28;20090;-60
2023/11/22 07:15:02;;;;;;;1.92;1.48;;;19.80;38.70;;;;;;5060775;28;20021;-62
2023/11/22 07:17:28;;;;;;;1.65;1.35;;;19.80;38.60;;;;;;5037395;28;20434;-61
2023/11/22 07:19:55;;;;;;;2.47;1.63;;;19.80;38.70;;;;;;5057508;28;20029;-60
2023/11/22 07:22:22;;;;;;;2.17;1.70;;;19.80;38.60;;;;;;5063867;28;20044;-60
2023/11/22 07:24:53;;;;;;;3.05;1.45;;;19.80;38.60;;;;;;5061067;28;20020;-59
2023/11/22 07:27:20;;;;;;;3.47;1.90;;;19.80;38.50;;;;;;5043393;28;20108;-59
2023/11/22 07:29:47;;;;;;;2.10;1.88;;;19.80;38.50;;;;;;5044324;28;20024;-61
2023/11/22 07:32:13;;;;;;;2.83;1.90;;;19.80;38.50;;;;;;5062009;28;20036;-60
2023/11/22 07:34:42;;;;;;;3.83;1.85;;;19.80;38.40;;;;;;5060061;28;20662;-59
2023/11/22 07:37:08;;;;;;;2.83;1.67;;;19.80;38.40;;;;;;5059690;28;20028;-56
2023/11/22 07:39:38;;;;;;;2.30;1.75;;;19.80;38.40;;;;;;5043559;28;20032;-57
2023/11/22 07:42:08;;;;;;;3.15;1.60;;;19.80;38.40;;;;;;5036124;28;20025;-61
2023/11/22 07:44:37;;;;;;;2.92;1.55;;;19.80;38.50;;;;;;5053382;28;20457;-63
2023/11/22 07:47:07;;;;;;;4.28;1.58;;;19.80;38.60;;;;;;5052325;28;20040;-60
2023/11/22 07:49:38;;;;;;;2.22;1.40;;;19.80;38.60;;;;;;5049131;28;20043;-61
2023/11/22 07:52:05;;;;;;;2.80;1.70;;;19.80;38.60;;;;;;5049892;28;20017;-60
2023/11/22 07:54:35;;;;;;;2.13;1.38;;;19.80;38.70;;;;;;5050641;28;20017;-61
2023/11/22 07:57:01;;;;;;;2.50;1.27;;;19.80;38.70;;;;;;5050914;28;20411;-60
2023/11/22 07:59:27;;;;;;;1.70;1.38;;;19.80;38.80;;;;;;5053555;28;20457;-61
2023/11/22 08:01:53;;;;;;;2.53;1.30;;;19.80;39.00;;;;;;5053814;28;20028;-61
2023/11/22 08:04:19;;;;;;;2.13;1.60;;;19.80;39.00;;;;;;5054223;28;20386;-59
2023/11/22 08:06:45;;;;;;;2.80;1.40;;;19.80;39.10;;;;;;5034859;28;20025;-57
2023/11/22 08:09:11;;;;;;;1.88;1.17;;;19.80;39.10;;;;;;5050762;28;20025;-58
2023/11/22 08:11:40;;;;;;;1.83;1.58;;;19.70;39.20;;;;;;5035884;28;20052;-60
2023/11/22 08:14:07;;;;;;;2.08;1.35;;;19.80;39.40;;;;;;5053579;28;20025;-60
2023/11/22 08:16:38;;;;;;;2.05;1.50;;;19.80;39.30;;;;;;5052335;28;20407;-58
2023/11/22 08:19:05;;;;;;;2.25;1.35;;;19.80;39.30;;;;;;5050895;28;20049;-61
2023/11/22 08:21:32;;;;;;;2.90;1.88;;;19.80;39.30;;;;;;5053523;28;20082;-60
2023/11/22 08:23:59;;;;;;;1.70;1.50;;;19.80;39.30;;;;;;5053479;28;20032;-59
2023/11/22 08:26:25;;;;;;;2.05;1.45;;;19.80;39.30;;;;;;5035672;28;20036;-60
2023/11/22 08:28:51;;;;;;;1.83;1.40;;;19.80;39.30;;;;;;5053471;28;20404;-61
2023/11/22 08:31:17;;;;;;;2.83;1.30;;;19.80;39.40;;;;;;5053067;28;20013;-59
2023/11/22 08:33:43;;;;;;;2.08;1.30;;;19.80;39.40;;;;;;5051328;28;20021;-59
2023/11/22 08:36:11;;;;;;;2.03;1.40;;;19.80;39.50;;;;;;5038725;28;20529;-60
2023/11/22 08:38:41;;;;;;;1.63;1.25;;;19.80;39.50;;;;;;5015724;28;20112;-60
2023/11/22 08:41:08;;;;;;;2.30;1.30;;;19.80;39.50;;;;;;5015640;28;20037;-59
2023/11/22 08:43:41;;;;;;;1.80;1.40;;;19.80;39.50;;;;;;5015891;28;20082;-61
2023/11/22 08:46:07;;;;;;;1.88;1.30;;;19.80;39.50;;;;;;5018245;28;20033;-59
2023/11/22 08:48:35;;;;;;;1.50;1.20;;;19.80;39.60;;;;;;5036200;28;20029;-59
2023/11/22 08:51:04;;;;;;;2.08;1.30;;;19.80;39.60;;;;;;5038158;28;20041;-60
2023/11/22 08:53:30;;;;;;;1.60;1.05;;;19.90;39.60;;;;;;5036452;28;20025;-59
2023/11/22 08:55:55;;;;;;;1.05;0.88;;;20.00;39.60;;;;;;5018540;28;20107;-60
2023/11/22 08:58:23;;;;;;;1.95;1.20;;;20.00;39.60;;;;;;5036781;28;20441;-62
2023/11/22 09:00:49;;;;;;;1.30;1.08;;;20.10;39.60;;;;;;5037204;28;20428;-59
2023/11/22 09:03:16;;;;;;;2.05;1.20;;;20.10;39.50;;;;;;5036385;28;20128;-61
2023/11/22 09:05:49;;;;;;;1.45;1.05;;;20.20;39.50;;;;;;5037187;28;20317;-59
2023/11/22 09:08:15;;;;;;;1.38;1.00;;;20.30;39.50;;;;;;5032301;28;20361;-60
2023/11/22 09:10:41;;;;;;;1.77;1.10;;;20.30;39.40;;;;;;5035619;28;20022;-62
2023/11/22 09:13:10;;;;;;;1.13;1.00;;;20.40;39.40;;;;;;5034176;28;20113;-60
2023/11/22 09:15:38;;;;;;;1.58;1.10;;;20.50;39.30;;;;;;5036161;28;20040;-58
2023/11/22 09:18:04;;;;;;;1.35;1.08;;;20.60;39.30;;;;;;5033251;28;20045;-59
2023/11/22 09:20:30;;;;;;;2.10;1.13;;;20.60;39.30;;;;;;5036615;28;20383;-59
2023/11/22 09:22:56;;;;;;;1.83;1.00;;;20.70;39.30;;;;;;5036716;28;20017;-60
2023/11/22 09:25:24;;;;;;;1.38;1.10;;;20.80;39.20;;;;;;5018900;28;20104;-59
2023/11/22 09:27:55;;;;;;;1.10;1.00;;;20.80;39.20;;;;;;5036453;28;20029;-63
2023/11/22 09:33:11;;;;;;;2.22;1.52;;;21.00;39.10;;;;;;5035330;28;20042;-61
2023/11/22 09:35:43;;;;;;;1.65;1.17;;;21.00;39.00;;;;;;5011106;28;20410;-60
2023/11/22 09:38:13;;;;;;;1.20;1.00;;;21.10;39.00;;;;;;5038083;28;20152;-60
2023/11/22 09:40:43;;;;;;;1.30;1.15;;;21.10;38.90;;;;;;5056034;28;20055;-60
2023/11/22 09:43:10;;;;;;;1.35;1.00;;;21.20;38.80;;;;;;5055844;28;20033;-61
2023/11/22 09:45:38;;;;;;;1.92;1.13;;;21.20;38.80;;;;;;5056260;28;20514;-58
2023/11/22 09:48:14;;;;;;;1.17;1.00;;;21.30;38.70;;;;;;5037371;28;20029;-58
2023/11/22 09:50:58;;;;;;;1.25;1.10;;;21.30;38.60;;;;;;5038179;28;20044;-60
2023/11/22 09:53:46;;;;;;;1.48;1.13;;;21.30;38.50;;;;;;5038147;28;20513;-59
2023/11/22 09:56:15;;;;;;;1.85;1.10;;;21.30;38.50;;;;;;5036614;28;20025;-61
2023/11/22 09:58:45;;;;;;;1.30;1.00;;;21.40;38.50;;;;;;5054548;28;20025;-62
2023/11/22 10:01:15;;;;;;;1.63;1.17;;;21.40;38.50;;;;;;5035599;28;20017;-63
2023/11/22 10:03:44;;;;;;;1.30;1.10;;;21.40;38.40;;;;;;5019620;28;20021;-61
2023/11/22 10:06:14;;;;;;;1.25;0.90;;;21.40;38.40;;;;;;5054996;28;20090;-60
2023/11/22 10:08:41;;;;;;;1.40;1.00;;;21.40;38.40;;;;;;5036444;28;20403;-61
2023/11/22 10:11:10;;;;;;;1.17;0.95;;;21.40;38.30;;;;;;5054227;28;20455;-61
2023/11/22 10:13:36;;;;;;;1.48;1.23;;;21.40;38.30;;;;;;5036777;28;20033;-60
2023/11/22 10:16:14;;;;;;;1.55;1.10;;;21.40;38.30;;;;;;5055358;28;20070;-59
2023/11/22 10:18:46;;;;;;;2.10;1.20;;;21.40;38.20;;;;;;5053286;28;20494;-60
2023/11/22 10:21:23;;;;;;;2.00;1.48;;;21.40;38.20;;;;;;5053605;28;20051;-63
2023/11/22 10:23:58;;;;;;;2.28;1.40;;;21.40;38.80;;;;;;5054095;28;20090;-60
2023/11/22 10:26:26;;;;;;;1.88;1.30;;;21.40;38.20;;;;;;5053284;28;20438;-60
2023/11/22 10:28:56;;;;;;;1.88;1.20;;;21.40;38.10;;;;;;5055453;28;20408;-60
2023/11/22 10:31:24;;;;;;;1.70;1.33;;;21.40;38.10;;;;;;5051882;28;20036;-62
2023/11/22 10:33:50;;;;;;;1.30;1.05;;;21.40;38.10;;;;;;5055137;28;20032;-59
2023/11/22 10:36:17;;;;;;;1.60;1.20;;;21.40;38.00;;;;;;5053961;28;20049;-63
2023/11/22 10:38:47;;;;;;;1.60;1.30;;;21.40;38.00;;;;;;5038149;28;20096;-58
2023/11/22 10:41:14;;;;;;;1.40;1.10;;;21.40;38.00;;;;;;5047880;28;20034;-61
2023/11/22 10:43:41;;;;;;;1.67;1.20;;;21.40;38.00;;;;;;5046668;28;20025;-60
2023/11/22 10:46:11;;;;;;;1.48;1.15;;;21.40;38.00;;;;;;5041008;28;20373;-60
2023/11/22 10:48:38;;;;;;;1.73;1.23;;;21.40;38.00;;;;;;5035629;28;20025;-62
2023/11/22 10:51:05;;;;;;;1.30;1.10;;;21.30;38.00;;;;;;5045432;28;20056;-61
2023/11/22 10:53:38;;;;;;;1.58;1.30;;;21.30;37.90;;;;;;5048236;28;20017;-61
2023/11/22 10:56:19;;;;;;;1.80;1.30;;;21.30;37.90;;;;;;5043514;28;20054;-62
2023/11/22 10:58:55;;;;;;;1.52;0.90;;;21.30;37.90;;;;;;5022567;28;20399;-59
2023/11/22 11:01:25;;;;;;;1.50;1.20;;;21.30;38.00;;;;;;5041175;28;20456;-59
2023/11/22 11:04:11;;;;;;;1.58;0.98;;;21.30;38.00;;;;;;5033443;28;20056;-60
2023/11/22 11:06:38;;;;;;;2.58;1.17;;;21.30;38.10;;;;;;5016962;28;20079;-60
2023/11/22 11:09:05;;;;;;;1.83;1.23;;;21.30;38.30;;;;;;5033069;28;20333;-57
2023/11/22 11:11:34;;;;;;;1.55;1.15;;;21.30;38.30;;;;;;5018553;28;20018;-57
2023/11/22 11:14:05;;;;;;;1.17;1.08;;;21.20;38.30;;;;;;5035209;28;20035;-59
2023/11/22 11:16:37;;;;;;;1.65;1.10;;;21.20;38.30;;;;;;5041477;28;20021;-59
2023/11/22 11:19:04;;;;;;;1.15;0.98;;;21.20;38.40;;;;;;5015222;28;20025;-58
2023/11/22 11:21:33;;;;;;;1.48;0.93;;;21.20;38.40;;;;;;5037699;28;20025;-59
2023/11/22 11:24:03;;;;;;;1.45;0.90;;;21.20;38.50;;;;;;5035218;28;20029;-60
2023/11/22 11:26:31;;;;;;;1.30;1.00;;;21.20;38.50;;;;;;5035451;28;20025;-60
2023/11/22 11:28:57;;;;;;;1.35;1.13;;;21.20;38.50;;;;;;5040277;28;20026;-60
2023/11/22 11:31:26;;;;;;;1.73;1.08;;;21.20;38.50;;;;;;5040445;28;20021;-60
2023/11/22 11:33:56;;;;;;;1.67;1.13;;;21.20;38.50;;;;;;5040242;28;20021;-61
2023/11/22 11:36:29;;;;;;;1.55;1.15;;;21.20;38.50;;;;;;5035367;28;20495;-60
2023/11/22 11:38:56;;;;;;;1.80;1.30;;;21.20;38.50;;;;;;5013317;28;20036;-57
2023/11/22 11:41:26;;;;;;;1.88;1.13;;;21.20;38.50;;;;;;5033871;28;20045;-58
2023/11/22 11:43:52;;;;;;;1.30;1.10;;;21.20;38.50;;;;;;5016093;28;20083;-60
2023/11/22 11:46:18;;;;;;;2.38;1.60;;;21.20;38.50;;;;;;5033386;28;20030;-59
2023/11/22 11:48:50;;;;;;;1.65;1.20;;;21.20;38.50;;;;;;5014678;28;20044;-62
2023/11/22 11:51:26;;;;;;;1.50;1.23;;;21.20;38.50;;;;;;5033023;28;20028;-59
2023/11/22 11:53:54;;;;;;;1.85;1.23;;;21.20;38.50;;;;;;5015243;28;20042;-59
2023/11/22 11:56:20;;;;;;;2.42;1.48;;;21.20;38.40;;;;;;5034269;28;20033;-58
2023/11/22 11:58:49;;;;;;;1.25;1.02;;;21.20;38.40;;;;;;5033295;28;20041;-57
2023/11/22 12:01:22;;;;;;;1.63;1.20;;;21.20;38.40;;;;;;5014440;28;20044;-59
2023/11/22 12:03:49;;;;;;;1.70;1.50;;;21.20;38.40;;;;;;5017357;28;20025;-58
2023/11/22 12:06:16;;;;;;;1.40;1.20;;;21.20;38.40;;;;;;5016427;28;20025;-54
2023/11/22 12:08:47;;;;;;;1.90;1.33;;;21.10;38.30;;;;;;5029243;28;20087;-60
2023/11/22 12:11:17;;;;;;;1.60;1.40;;;21.10;38.30;;;;;;5034872;28;20033;-60
2023/11/22 12:13:46;;;;;;;1.50;1.40;;;21.10;38.30;;;;;;5024055;28;20033;-58
2023/11/22 12:16:16;;;;;;;2.42;1.38;;;21.10;38.30;;;;;;5033967;28;20029;-59
2023/11/22 12:18:51;;;;;;;1.75;1.60;;;21.10;38.30;;;;;;5029955;28;20368;-61
2023/11/22 12:21:17;;;;;;;1.27;1.10;;;21.10;38.90;;;;;;5034067;28;20029;-60
2023/11/22 12:23:45;;;;;;;2.03;1.52;;;21.10;38.40;;;;;;5001821;28;20026;-59
2023/11/22 12:26:16;;;;;;;1.83;1.50;;;21.10;38.40;;;;;;5035844;28;20034;-59
2023/11/22 12:28:45;;;;;;;2.35;1.48;;;21.10;38.40;;;;;;5035724;28;20029;-59
2023/11/22 12:31:14;;;;;;;1.90;1.52;;;21.10;38.40;;;;;;5036811;28;20048;-60
2023/11/22 12:33:42;;;;;;;1.90;1.52;;;21.10;38.40;;;;;;5019529;28;20033;-59
2023/11/22 12:36:10;;;;;;;2.55;1.67;;;21.10;38.30;;;;;;5019788;28;20049;-60
2023/11/22 12:38:36;;;;;;;2.78;1.70;;;21.10;38.30;;;;;;5018828;28;20040;-57
2023/11/22 12:41:03;;;;;;;2.70;1.90;;;21.10;38.20;;;;;;5028508;28;20029;-57
2023/11/22 12:43:30;;;;;;;3.00;1.90;;;21.10;38.20;;;;;;5037205;28;20031;-58
2023/11/22 12:46:00;;;;;;;2.33;1.90;;;21.10;38.10;;;;;;5036555;28;20033;-62
2023/11/22 12:48:29;;;;;;;2.17;1.70;;;21.10;38.10;;;;;;5019805;28;20029;-60
2023/11/22 12:50:57;;;;;;;1.88;1.70;;;21.10;38.20;;;;;;5038177;28;20026;-62
2023/11/22 12:53:25;;;;;;;2.88;2.05;;;21.10;38.30;;;;;;5017972;28;20025;-60